sensor_id;sensor_type;location;lat;lon;timestamp;P1;durP1;ratioP1;P2;durP2;ratioP2
70132;SDS011;57495;49.922;7.966;2023-09-18T00:01:35;9.93;;;4.38;;
70132;SDS011;57495;49.922;7.966;2023-09-18T00:03:36;8.57;;;3.95;;
70132;SDS011;57495;49.922;7.966;2023-09-18T00:05:37;10.73;;;4.20;;
70132;SDS011;57495;49.922;7.966;2023-09-18T00:07:39;10.83;;;4.07;;
70132;SDS011;57495;49.922;7.966;2023-09-18T00:09:40;11.65;;;4.45;;
70132;SDS011;57495;49.922;7.966;2023-09-18T00:11:41;10.27;;;4.37;;
70132;SDS011;57495;49.922;7.966;2023-09-18T00:13:42;9.02;;;4.07;;
70132;SDS011;57495;49.922;7.966;2023-09-18T00:15:44;10.07;;;3.97;;
70132;SDS011;57495;49.922;7.966;2023-09-18T00:17:49;7.28;;;3.75;;
70132;SDS011;57495;49.922;7.966;2023-09-18T00:19:50;9.07;;;4.25;;
70132;SDS011;57495;49.922;7.966;2023-09-18T00:21:53;13.10;;;4.33;;
70132;SDS011;57495;49.922;7.966;2023-09-18T00:23:54;11.63;;;4.18;;
70132;SDS011;57495;49.922;7.966;2023-09-18T00:25:55;9.65;;;3.90;;
70132;SDS011;57495;49.922;7.966;2023-09-18T00:27:57;11.98;;;4.13;;
70132;SDS011;57495;49.922;7.966;2023-09-18T00:29:58;12.00;;;4.72;;
70132;SDS011;57495;49.922;7.966;2023-09-18T00:32:00;10.97;;;3.97;;
70132;SDS011;57495;49.922;7.966;2023-09-18T00:34:02;9.55;;;3.88;;
70132;SDS011;57495;49.922;7.966;2023-09-18T00:36:04;8.77;;;4.53;;
70132;SDS011;57495;49.922;7.966;2023-09-18T00:38:05;8.55;;;4.18;;
70132;SDS011;57495;49.922;7.966;2023-09-18T00:40:07;12.93;;;4.50;;
70132;SDS011;57495;49.922;7.966;2023-09-18T00:42:09;9.50;;;4.28;;
70132;SDS011;57495;49.922;7.966;2023-09-18T00:44:13;11.02;;;4.35;;
70132;SDS011;57495;49.922;7.966;2023-09-18T00:46:14;10.43;;;4.23;;
70132;SDS011;57495;49.922;7.966;2023-09-18T00:48:15;10.95;;;4.43;;
70132;SDS011;57495;49.922;7.966;2023-09-18T00:50:19;8.32;;;4.32;;
70132;SDS011;57495;49.922;7.966;2023-09-18T00:52:21;10.25;;;4.43;;
70132;SDS011;57495;49.922;7.966;2023-09-18T00:54:24;9.77;;;4.23;;
70132;SDS011;57495;49.922;7.966;2023-09-18T00:56:26;7.70;;;4.13;;
70132;SDS011;57495;49.922;7.966;2023-09-18T00:58:27;11.48;;;4.25;;
70132;SDS011;57495;49.922;7.966;2023-09-18T01:00:28;11.53;;;4.37;;
70132;SDS011;57495;49.922;7.966;2023-09-18T01:02:29;10.88;;;4.57;;
70132;SDS011;57495;49.922;7.966;2023-09-18T01:04:31;9.27;;;4.43;;
70132;SDS011;57495;49.922;7.966;2023-09-18T01:06:35;9.80;;;4.30;;
70132;SDS011;57495;49.922;7.966;2023-09-18T01:08:37;7.78;;;4.25;;
70132;SDS011;57495;49.922;7.966;2023-09-18T01:10:40;8.13;;;4.33;;
70132;SDS011;57495;49.922;7.966;2023-09-18T01:12:55;9.05;;;4.00;;
70132;SDS011;57495;49.922;7.966;2023-09-18T01:15:07;12.50;;;4.10;;
70132;SDS011;57495;49.922;7.966;2023-09-18T01:17:12;13.80;;;4.40;;
70132;SDS011;57495;49.922;7.966;2023-09-18T01:19:16;12.85;;;4.28;;
70132;SDS011;57495;49.922;7.966;2023-09-18T01:21:18;9.20;;;3.93;;
70132;SDS011;57495;49.922;7.966;2023-09-18T01:23:21;7.18;;;3.30;;
70132;SDS011;57495;49.922;7.966;2023-09-18T01:25:22;7.97;;;3.72;;
70132;SDS011;57495;49.922;7.966;2023-09-18T01:27:24;6.85;;;3.40;;
70132;SDS011;57495;49.922;7.966;2023-09-18T01:29:25;7.57;;;3.53;;
70132;SDS011;57495;49.922;7.966;2023-09-18T01:31:27;6.47;;;3.30;;
70132;SDS011;57495;49.922;7.966;2023-09-18T01:33:28;8.65;;;3.30;;
70132;SDS011;57495;49.922;7.966;2023-09-18T01:35:30;8.55;;;3.38;;
70132;SDS011;57495;49.922;7.966;2023-09-18T01:37:33;9.23;;;3.00;;
70132;SDS011;57495;49.922;7.966;2023-09-18T01:39:37;8.30;;;3.20;;
70132;SDS011;57495;49.922;7.966;2023-09-18T01:41:40;9.67;;;4.47;;
70132;SDS011;57495;49.922;7.966;2023-09-18T01:43:42;8.25;;;4.95;;
70132;SDS011;57495;49.922;7.966;2023-09-18T01:45:43;10.60;;;4.70;;
70132;SDS011;57495;49.922;7.966;2023-09-18T01:47:45;12.82;;;4.60;;
70132;SDS011;57495;49.922;7.966;2023-09-18T01:49:45;9.63;;;4.60;;
70132;SDS011;57495;49.922;7.966;2023-09-18T01:51:47;8.27;;;4.43;;
70132;SDS011;57495;49.922;7.966;2023-09-18T01:53:49;8.88;;;4.82;;
70132;SDS011;57495;49.922;7.966;2023-09-18T01:55:51;11.25;;;4.38;;
70132;SDS011;57495;49.922;7.966;2023-09-18T01:57:53;10.00;;;4.95;;
70132;SDS011;57495;49.922;7.966;2023-09-18T01:59:54;10.17;;;4.60;;
70132;SDS011;57495;49.922;7.966;2023-09-18T02:01:56;11.25;;;4.68;;
70132;SDS011;57495;49.922;7.966;2023-09-18T02:03:57;10.73;;;4.60;;
70132;SDS011;57495;49.922;7.966;2023-09-18T02:05:59;9.70;;;5.22;;
70132;SDS011;57495;49.922;7.966;2023-09-18T02:08:00;11.23;;;4.93;;
70132;SDS011;57495;49.922;7.966;2023-09-18T02:10:03;9.03;;;4.77;;
70132;SDS011;57495;49.922;7.966;2023-09-18T02:12:06;8.95;;;4.65;;
70132;SDS011;57495;49.922;7.966;2023-09-18T02:14:08;11.32;;;4.70;;
70132;SDS011;57495;49.922;7.966;2023-09-18T02:16:12;9.45;;;4.30;;
70132;SDS011;57495;49.922;7.966;2023-09-18T02:18:14;10.07;;;4.75;;
70132;SDS011;57495;49.922;7.966;2023-09-18T02:20:15;9.97;;;4.97;;
70132;SDS011;57495;49.922;7.966;2023-09-18T02:22:18;9.48;;;4.30;;
70132;SDS011;57495;49.922;7.966;2023-09-18T02:24:19;9.98;;;4.20;;
70132;SDS011;57495;49.922;7.966;2023-09-18T02:26:21;11.70;;;4.50;;
70132;SDS011;57495;49.922;7.966;2023-09-18T02:28:25;6.75;;;3.17;;
70132;SDS011;57495;49.922;7.966;2023-09-18T02:30:26;7.50;;;3.30;;
70132;SDS011;57495;49.922;7.966;2023-09-18T02:32:28;9.73;;;4.75;;
70132;SDS011;57495;49.922;7.966;2023-09-18T02:34:30;10.43;;;4.20;;
70132;SDS011;57495;49.922;7.966;2023-09-18T02:36:31;9.13;;;3.60;;
70132;SDS011;57495;49.922;7.966;2023-09-18T02:38:32;7.80;;;3.20;;
70132;SDS011;57495;49.922;7.966;2023-09-18T02:40:33;7.95;;;3.00;;
70132;SDS011;57495;49.922;7.966;2023-09-18T02:42:35;7.70;;;3.22;;
70132;SDS011;57495;49.922;7.966;2023-09-18T02:44:37;7.73;;;3.33;;
70132;SDS011;57495;49.922;7.966;2023-09-18T02:46:41;9.27;;;3.20;;
70132;SDS011;57495;49.922;7.966;2023-09-18T02:48:43;8.02;;;3.35;;
70132;SDS011;57495;49.922;7.966;2023-09-18T02:50:44;8.43;;;3.30;;
70132;SDS011;57495;49.922;7.966;2023-09-18T02:52:46;9.82;;;3.63;;
70132;SDS011;57495;49.922;7.966;2023-09-18T02:54:47;8.13;;;4.57;;
70132;SDS011;57495;49.922;7.966;2023-09-18T02:56:49;10.45;;;4.05;;
70132;SDS011;57495;49.922;7.966;2023-09-18T02:58:50;8.73;;;4.00;;
70132;SDS011;57495;49.922;7.966;2023-09-18T03:00:54;8.98;;;4.88;;
70132;SDS011;57495;49.922;7.966;2023-09-18T03:02:55;9.52;;;4.63;;
70132;SDS011;57495;49.922;7.966;2023-09-18T03:04:57;8.50;;;3.63;;
70132;SDS011;57495;49.922;7.966;2023-09-18T03:06:58;7.43;;;3.85;;
70132;SDS011;57495;49.922;7.966;2023-09-18T03:09:00;10.32;;;3.35;;
70132;SDS011;57495;49.922;7.966;2023-09-18T03:11:02;9.98;;;4.88;;
70132;SDS011;57495;49.922;7.966;2023-09-18T03:13:04;10.18;;;4.93;;
70132;SDS011;57495;49.922;7.966;2023-09-18T03:15:06;10.33;;;4.50;;
70132;SDS011;57495;49.922;7.966;2023-09-18T03:17:09;10.23;;;4.55;;
70132;SDS011;57495;49.922;7.966;2023-09-18T03:19:10;11.25;;;4.15;;
70132;SDS011;57495;49.922;7.966;2023-09-18T03:21:12;11.60;;;5.05;;
70132;SDS011;57495;49.922;7.966;2023-09-18T03:23:14;12.05;;;5.10;;
70132;SDS011;57495;49.922;7.966;2023-09-18T03:25:15;13.37;;;5.20;;
70132;SDS011;57495;49.922;7.966;2023-09-18T03:27:16;9.15;;;4.85;;
70132;SDS011;57495;49.922;7.966;2023-09-18T03:29:18;12.07;;;5.22;;
70132;SDS011;57495;49.922;7.966;2023-09-18T03:31:19;10.43;;;4.85;;
70132;SDS011;57495;49.922;7.966;2023-09-18T03:33:22;12.07;;;5.18;;
70132;SDS011;57495;49.922;7.966;2023-09-18T03:35:23;10.33;;;4.90;;
70132;SDS011;57495;49.922;7.966;2023-09-18T03:37:24;10.50;;;5.22;;
70132;SDS011;57495;49.922;7.966;2023-09-18T03:39:25;12.32;;;4.88;;
70132;SDS011;57495;49.922;7.966;2023-09-18T03:41:27;10.57;;;4.83;;
70132;SDS011;57495;49.922;7.966;2023-09-18T03:43:33;9.55;;;4.63;;
70132;SDS011;57495;49.922;7.966;2023-09-18T03:45:35;9.85;;;4.82;;
70132;SDS011;57495;49.922;7.966;2023-09-18T03:47:37;8.15;;;4.80;;
70132;SDS011;57495;49.922;7.966;2023-09-18T03:49:41;9.85;;;5.10;;
70132;SDS011;57495;49.922;7.966;2023-09-18T03:51:42;9.47;;;5.00;;
70132;SDS011;57495;49.922;7.966;2023-09-18T03:53:44;8.05;;;4.65;;
70132;SDS011;57495;49.922;7.966;2023-09-18T03:55:48;10.77;;;5.47;;
70132;SDS011;57495;49.922;7.966;2023-09-18T03:57:49;11.13;;;4.70;;
70132;SDS011;57495;49.922;7.966;2023-09-18T03:59:51;9.38;;;5.35;;
70132;SDS011;57495;49.922;7.966;2023-09-18T04:01:52;12.23;;;5.50;;
70132;SDS011;57495;49.922;7.966;2023-09-18T04:03:53;9.18;;;5.13;;
70132;SDS011;57495;49.922;7.966;2023-09-18T04:05:59;11.98;;;5.50;;
70132;SDS011;57495;49.922;7.966;2023-09-18T04:08:00;11.55;;;5.43;;
70132;SDS011;57495;49.922;7.966;2023-09-18T04:10:02;10.25;;;5.45;;
70132;SDS011;57495;49.922;7.966;2023-09-18T04:12:05;11.53;;;4.93;;
70132;SDS011;57495;49.922;7.966;2023-09-18T04:14:07;13.23;;;5.60;;
70132;SDS011;57495;49.922;7.966;2023-09-18T04:16:08;12.10;;;4.82;;
70132;SDS011;57495;49.922;7.966;2023-09-18T04:18:13;10.95;;;4.82;;
70132;SDS011;57495;49.922;7.966;2023-09-18T04:20:15;9.88;;;5.70;;
70132;SDS011;57495;49.922;7.966;2023-09-18T04:22:18;13.80;;;5.30;;
70132;SDS011;57495;49.922;7.966;2023-09-18T04:24:19;10.95;;;4.88;;
70132;SDS011;57495;49.922;7.966;2023-09-18T04:26:21;9.05;;;4.65;;
70132;SDS011;57495;49.922;7.966;2023-09-18T04:28:22;12.48;;;5.15;;
70132;SDS011;57495;49.922;7.966;2023-09-18T04:30:24;10.15;;;4.65;;
70132;SDS011;57495;49.922;7.966;2023-09-18T04:32:26;11.60;;;5.00;;
70132;SDS011;57495;49.922;7.966;2023-09-18T04:34:29;8.40;;;4.55;;
70132;SDS011;57495;49.922;7.966;2023-09-18T04:36:30;9.88;;;4.40;;
70132;SDS011;57495;49.922;7.966;2023-09-18T04:38:33;10.07;;;4.47;;
70132;SDS011;57495;49.922;7.966;2023-09-18T04:40:35;11.95;;;5.47;;
70132;SDS011;57495;49.922;7.966;2023-09-18T04:42:38;12.97;;;4.70;;
70132;SDS011;57495;49.922;7.966;2023-09-18T04:44:40;9.93;;;5.22;;
70132;SDS011;57495;49.922;7.966;2023-09-18T04:46:43;10.75;;;4.90;;
70132;SDS011;57495;49.922;7.966;2023-09-18T04:48:48;9.27;;;5.18;;
70132;SDS011;57495;49.922;7.966;2023-09-18T04:50:50;10.48;;;5.15;;
70132;SDS011;57495;49.922;7.966;2023-09-18T04:52:51;10.03;;;5.07;;
70132;SDS011;57495;49.922;7.966;2023-09-18T04:54:55;10.57;;;5.15;;
70132;SDS011;57495;49.922;7.966;2023-09-18T04:56:57;8.93;;;5.00;;
70132;SDS011;57495;49.922;7.966;2023-09-18T04:58:59;11.25;;;4.85;;
70132;SDS011;57495;49.922;7.966;2023-09-18T05:00:59;9.73;;;5.30;;
70132;SDS011;57495;49.922;7.966;2023-09-18T05:03:01;9.95;;;5.05;;
70132;SDS011;57495;49.922;7.966;2023-09-18T05:05:03;9.38;;;5.43;;
70132;SDS011;57495;49.922;7.966;2023-09-18T05:07:13;10.20;;;4.80;;
70132;SDS011;57495;49.922;7.966;2023-09-18T05:09:15;10.20;;;5.03;;
70132;SDS011;57495;49.922;7.966;2023-09-18T05:11:18;12.65;;;5.43;;
70132;SDS011;57495;49.922;7.966;2023-09-18T05:13:19;9.73;;;5.47;;
70132;SDS011;57495;49.922;7.966;2023-09-18T05:15:21;11.93;;;5.70;;
70132;SDS011;57495;49.922;7.966;2023-09-18T05:17:27;12.50;;;5.73;;
70132;SDS011;57495;49.922;7.966;2023-09-18T05:19:41;11.32;;;6.28;;
70132;SDS011;57495;49.922;7.966;2023-09-18T05:21:43;9.77;;;6.22;;
70132;SDS011;57495;49.922;7.966;2023-09-18T05:23:44;11.70;;;6.13;;
70132;SDS011;57495;49.922;7.966;2023-09-18T05:25:46;10.20;;;5.70;;
70132;SDS011;57495;49.922;7.966;2023-09-18T05:27:49;12.45;;;6.07;;
70132;SDS011;57495;49.922;7.966;2023-09-18T05:29:55;14.63;;;5.97;;
70132;SDS011;57495;49.922;7.966;2023-09-18T05:31:56;11.85;;;5.15;;
70132;SDS011;57495;49.922;7.966;2023-09-18T05:33:58;11.40;;;4.90;;
70132;SDS011;57495;49.922;7.966;2023-09-18T05:35:59;11.95;;;4.88;;
70132;SDS011;57495;49.922;7.966;2023-09-18T05:38:01;10.60;;;5.20;;
70132;SDS011;57495;49.922;7.966;2023-09-18T05:40:03;11.27;;;4.68;;
70132;SDS011;57495;49.922;7.966;2023-09-18T05:42:06;10.98;;;5.15;;
70132;SDS011;57495;49.922;7.966;2023-09-18T05:44:09;11.43;;;4.10;;
70132;SDS011;57495;49.922;7.966;2023-09-18T05:46:12;10.55;;;4.40;;
70132;SDS011;57495;49.922;7.966;2023-09-18T05:48:14;9.15;;;4.35;;
70132;SDS011;57495;49.922;7.966;2023-09-18T05:50:14;8.77;;;4.47;;
70132;SDS011;57495;49.922;7.966;2023-09-18T05:52:16;12.38;;;4.35;;
70132;SDS011;57495;49.922;7.966;2023-09-18T05:54:18;10.43;;;3.50;;
70132;SDS011;57495;49.922;7.966;2023-09-18T05:56:19;12.73;;;4.20;;
70132;SDS011;57495;49.922;7.966;2023-09-18T05:58:21;13.40;;;3.60;;
70132;SDS011;57495;49.922;7.966;2023-09-18T06:00:26;11.00;;;3.70;;
70132;SDS011;57495;49.922;7.966;2023-09-18T06:02:30;14.15;;;3.40;;
70132;SDS011;57495;49.922;7.966;2023-09-18T06:04:31;15.73;;;3.63;;
70132;SDS011;57495;49.922;7.966;2023-09-18T06:06:33;10.27;;;2.92;;
70132;SDS011;57495;49.922;7.966;2023-09-18T06:08:35;11.93;;;2.90;;
70132;SDS011;57495;49.922;7.966;2023-09-18T06:10:36;11.48;;;2.70;;
70132;SDS011;57495;49.922;7.966;2023-09-18T06:12:38;13.18;;;3.30;;
70132;SDS011;57495;49.922;7.966;2023-09-18T06:14:39;12.73;;;3.57;;
70132;SDS011;57495;49.922;7.966;2023-09-18T06:16:42;11.35;;;4.07;;
70132;SDS011;57495;49.922;7.966;2023-09-18T06:18:44;12.40;;;3.00;;
70132;SDS011;57495;49.922;7.966;2023-09-18T06:20:44;16.37;;;3.03;;
70132;SDS011;57495;49.922;7.966;2023-09-18T06:22:46;10.93;;;2.80;;
70132;SDS011;57495;49.922;7.966;2023-09-18T06:24:46;11.97;;;3.33;;
70132;SDS011;57495;49.922;7.966;2023-09-18T06:26:47;11.10;;;2.80;;
70132;SDS011;57495;49.922;7.966;2023-09-18T06:28:50;10.80;;;2.60;;
70132;SDS011;57495;49.922;7.966;2023-09-18T06:30:52;14.13;;;2.97;;
70132;SDS011;57495;49.922;7.966;2023-09-18T06:32:56;7.88;;;1.77;;
70132;SDS011;57495;49.922;7.966;2023-09-18T06:34:58;10.43;;;2.70;;
70132;SDS011;57495;49.922;7.966;2023-09-18T06:36:59;7.90;;;2.10;;
70132;SDS011;57495;49.922;7.966;2023-09-18T06:39:01;10.30;;;2.50;;
70132;SDS011;57495;49.922;7.966;2023-09-18T06:41:02;9.40;;;1.83;;
70132;SDS011;57495;49.922;7.966;2023-09-18T06:43:04;10.35;;;2.30;;
70132;SDS011;57495;49.922;7.966;2023-09-18T06:45:06;11.73;;;2.43;;
70132;SDS011;57495;49.922;7.966;2023-09-18T06:47:08;16.58;;;2.55;;
70132;SDS011;57495;49.922;7.966;2023-09-18T06:49:10;10.63;;;2.38;;
70132;SDS011;57495;49.922;7.966;2023-09-18T06:51:11;12.53;;;2.00;;
70132;SDS011;57495;49.922;7.966;2023-09-18T06:53:15;11.35;;;2.40;;
70132;SDS011;57495;49.922;7.966;2023-09-18T06:55:16;11.82;;;2.85;;
70132;SDS011;57495;49.922;7.966;2023-09-18T06:57:18;11.17;;;1.93;;
70132;SDS011;57495;49.922;7.966;2023-09-18T06:59:21;9.57;;;2.33;;
70132;SDS011;57495;49.922;7.966;2023-09-18T07:01:22;12.55;;;2.20;;
70132;SDS011;57495;49.922;7.966;2023-09-18T07:03:24;9.05;;;2.30;;
70132;SDS011;57495;49.922;7.966;2023-09-18T07:05:27;10.33;;;2.27;;
70132;SDS011;57495;49.922;7.966;2023-09-18T07:07:28;13.88;;;2.20;;
70132;SDS011;57495;49.922;7.966;2023-09-18T07:09:30;9.43;;;2.85;;
70132;SDS011;57495;49.922;7.966;2023-09-18T07:11:32;12.68;;;2.20;;
70132;SDS011;57495;49.922;7.966;2023-09-18T07:13:33;11.65;;;2.63;;
70132;SDS011;57495;49.922;7.966;2023-09-18T07:15:35;11.23;;;2.00;;
70132;SDS011;57495;49.922;7.966;2023-09-18T07:17:36;13.18;;;2.22;;
70132;SDS011;57495;49.922;7.966;2023-09-18T07:19:38;10.88;;;2.03;;
70132;SDS011;57495;49.922;7.966;2023-09-18T07:21:41;17.73;;;2.42;;
70132;SDS011;57495;49.922;7.966;2023-09-18T07:23:42;9.65;;;2.00;;
70132;SDS011;57495;49.922;7.966;2023-09-18T07:25:47;9.47;;;2.17;;
70132;SDS011;57495;49.922;7.966;2023-09-18T07:27:48;11.25;;;3.13;;
70132;SDS011;57495;49.922;7.966;2023-09-18T07:29:50;9.70;;;2.83;;
70132;SDS011;57495;49.922;7.966;2023-09-18T07:31:51;8.38;;;2.08;;
70132;SDS011;57495;49.922;7.966;2023-09-18T07:33:53;12.80;;;2.50;;
70132;SDS011;57495;49.922;7.966;2023-09-18T07:35:54;10.37;;;2.17;;
70132;SDS011;57495;49.922;7.966;2023-09-18T07:37:57;10.05;;;2.40;;
70132;SDS011;57495;49.922;7.966;2023-09-18T07:39:58;12.73;;;2.53;;
70132;SDS011;57495;49.922;7.966;2023-09-18T07:42:00;11.73;;;1.95;;
70132;SDS011;57495;49.922;7.966;2023-09-18T07:44:02;8.73;;;1.98;;
70132;SDS011;57495;49.922;7.966;2023-09-18T07:46:03;10.47;;;2.00;;
70132;SDS011;57495;49.922;7.966;2023-09-18T07:48:08;7.63;;;2.38;;
70132;SDS011;57495;49.922;7.966;2023-09-18T07:50:09;9.73;;;2.50;;
70132;SDS011;57495;49.922;7.966;2023-09-18T07:52:11;10.73;;;1.95;;
70132;SDS011;57495;49.922;7.966;2023-09-18T07:54:15;9.82;;;2.08;;
70132;SDS011;57495;49.922;7.966;2023-09-18T07:56:17;7.57;;;1.63;;
70132;SDS011;57495;49.922;7.966;2023-09-18T07:58:19;7.65;;;1.50;;
70132;SDS011;57495;49.922;7.966;2023-09-18T08:00:20;8.63;;;1.80;;
70132;SDS011;57495;49.922;7.966;2023-09-18T08:02:22;6.47;;;1.25;;
70132;SDS011;57495;49.922;7.966;2023-09-18T08:04:23;8.23;;;1.20;;
70132;SDS011;57495;49.922;7.966;2023-09-18T08:06:24;5.70;;;1.40;;
70132;SDS011;57495;49.922;7.966;2023-09-18T08:08:26;5.75;;;1.17;;
70132;SDS011;57495;49.922;7.966;2023-09-18T08:10:32;8.82;;;1.55;;
70132;SDS011;57495;49.922;7.966;2023-09-18T08:12:37;7.37;;;1.37;;
70132;SDS011;57495;49.922;7.966;2023-09-18T08:14:38;9.52;;;1.52;;
70132;SDS011;57495;49.922;7.966;2023-09-18T08:16:40;7.88;;;1.30;;
70132;SDS011;57495;49.922;7.966;2023-09-18T08:18:41;17.00;;;2.20;;
70132;SDS011;57495;49.922;7.966;2023-09-18T08:20:44;6.28;;;1.05;;
70132;SDS011;57495;49.922;7.966;2023-09-18T08:22:45;3.97;;;0.90;;
70132;SDS011;57495;49.922;7.966;2023-09-18T08:24:48;5.22;;;1.10;;
70132;SDS011;57495;49.922;7.966;2023-09-18T08:26:53;7.28;;;1.05;;
70132;SDS011;57495;49.922;7.966;2023-09-18T08:28:55;6.35;;;1.10;;
70132;SDS011;57495;49.922;7.966;2023-09-18T08:30:57;6.55;;;1.38;;
70132;SDS011;57495;49.922;7.966;2023-09-18T08:32:59;5.23;;;1.33;;
70132;SDS011;57495;49.922;7.966;2023-09-18T08:35:01;6.43;;;1.13;;
70132;SDS011;57495;49.922;7.966;2023-09-18T08:37:02;6.00;;;1.40;;
70132;SDS011;57495;49.922;7.966;2023-09-18T08:39:04;9.65;;;1.20;;
70132;SDS011;57495;49.922;7.966;2023-09-18T08:41:06;6.20;;;0.88;;
70132;SDS011;57495;49.922;7.966;2023-09-18T08:43:12;4.77;;;1.00;;
70132;SDS011;57495;49.922;7.966;2023-09-18T08:45:19;7.50;;;1.35;;
70132;SDS011;57495;49.922;7.966;2023-09-18T08:47:24;4.32;;;0.80;;
70132;SDS011;57495;49.922;7.966;2023-09-18T08:49:27;7.85;;;1.13;;
70132;SDS011;57495;49.922;7.966;2023-09-18T08:51:30;5.43;;;0.80;;
70132;SDS011;57495;49.922;7.966;2023-09-18T08:53:35;5.90;;;0.80;;
70132;SDS011;57495;49.922;7.966;2023-09-18T08:55:37;5.25;;;0.90;;
70132;SDS011;57495;49.922;7.966;2023-09-18T08:57:39;5.35;;;0.80;;
70132;SDS011;57495;49.922;7.966;2023-09-18T08:59:42;4.40;;;1.10;;
70132;SDS011;57495;49.922;7.966;2023-09-18T09:01:44;5.78;;;0.88;;
70132;SDS011;57495;49.922;7.966;2023-09-18T09:03:46;5.60;;;0.50;;
70132;SDS011;57495;49.922;7.966;2023-09-18T09:05:47;5.22;;;0.90;;
70132;SDS011;57495;49.922;7.966;2023-09-18T09:07:49;4.50;;;0.95;;
70132;SDS011;57495;49.922;7.966;2023-09-18T09:09:50;4.22;;;1.10;;
70132;SDS011;57495;49.922;7.966;2023-09-18T09:11:52;3.72;;;0.70;;
70132;SDS011;57495;49.922;7.966;2023-09-18T09:14:08;4.50;;;1.00;;
70132;SDS011;57495;49.922;7.966;2023-09-18T09:16:13;6.18;;;0.70;;
70132;SDS011;57495;49.922;7.966;2023-09-18T09:18:18;4.95;;;1.00;;
70132;SDS011;57495;49.922;7.966;2023-09-18T09:20:19;4.85;;;0.98;;
70132;SDS011;57495;49.922;7.966;2023-09-18T09:22:20;6.03;;;0.88;;
70132;SDS011;57495;49.922;7.966;2023-09-18T09:24:28;4.60;;;1.03;;
70132;SDS011;57495;49.922;7.966;2023-09-18T09:26:37;5.20;;;0.95;;
70132;SDS011;57495;49.922;7.966;2023-09-18T09:28:38;6.10;;;0.65;;
70132;SDS011;57495;49.922;7.966;2023-09-18T09:30:40;6.45;;;0.90;;
70132;SDS011;57495;49.922;7.966;2023-09-18T09:32:43;4.13;;;0.80;;
70132;SDS011;57495;49.922;7.966;2023-09-18T09:34:48;7.03;;;1.13;;
70132;SDS011;57495;49.922;7.966;2023-09-18T09:36:52;5.80;;;0.85;;
70132;SDS011;57495;49.922;7.966;2023-09-18T09:38:55;4.75;;;0.70;;
70132;SDS011;57495;49.922;7.966;2023-09-18T09:40:58;4.22;;;0.57;;
70132;SDS011;57495;49.922;7.966;2023-09-18T09:43:00;3.22;;;0.73;;
70132;SDS011;57495;49.922;7.966;2023-09-18T09:45:03;3.87;;;0.90;;
70132;SDS011;57495;49.922;7.966;2023-09-18T09:47:06;8.15;;;1.15;;
70132;SDS011;57495;49.922;7.966;2023-09-18T09:49:09;2.90;;;0.70;;
70132;SDS011;57495;49.922;7.966;2023-09-18T09:51:10;5.20;;;0.90;;
70132;SDS011;57495;49.922;7.966;2023-09-18T09:53:23;3.90;;;1.10;;
70132;SDS011;57495;49.922;7.966;2023-09-18T09:55:43;4.83;;;0.90;;
70132;SDS011;57495;49.922;7.966;2023-09-18T09:57:48;4.43;;;1.00;;
70132;SDS011;57495;49.922;7.966;2023-09-18T09:59:51;4.25;;;0.70;;
70132;SDS011;57495;49.922;7.966;2023-09-18T10:01:55;3.65;;;0.80;;
70132;SDS011;57495;49.922;7.966;2023-09-18T10:03:59;4.93;;;0.88;;
70132;SDS011;57495;49.922;7.966;2023-09-18T10:06:03;5.47;;;0.80;;
70132;SDS011;57495;49.922;7.966;2023-09-18T10:08:07;3.17;;;0.80;;
70132;SDS011;57495;49.922;7.966;2023-09-18T10:10:09;3.60;;;1.00;;
70132;SDS011;57495;49.922;7.966;2023-09-18T10:12:11;4.00;;;0.82;;
70132;SDS011;57495;49.922;7.966;2023-09-18T10:14:16;5.35;;;0.60;;
70132;SDS011;57495;49.922;7.966;2023-09-18T10:16:21;5.10;;;1.00;;
70132;SDS011;57495;49.922;7.966;2023-09-18T10:18:26;3.20;;;0.77;;
70132;SDS011;57495;49.922;7.966;2023-09-18T10:20:29;5.55;;;1.00;;
70132;SDS011;57495;49.922;7.966;2023-09-18T10:22:32;5.57;;;0.90;;
70132;SDS011;57495;49.922;7.966;2023-09-18T10:24:39;3.67;;;0.68;;
70132;SDS011;57495;49.922;7.966;2023-09-18T10:26:44;8.03;;;1.07;;
70132;SDS011;57495;49.922;7.966;2023-09-18T10:28:51;3.38;;;0.90;;
70132;SDS011;57495;49.922;7.966;2023-09-18T10:30:58;3.78;;;0.90;;
70132;SDS011;57495;49.922;7.966;2023-09-18T10:33:03;4.85;;;0.90;;
70132;SDS011;57495;49.922;7.966;2023-09-18T10:35:07;4.47;;;1.00;;
70132;SDS011;57495;49.922;7.966;2023-09-18T10:37:09;4.50;;;0.80;;
70132;SDS011;57495;49.922;7.966;2023-09-18T10:39:14;4.07;;;0.90;;
70132;SDS011;57495;49.922;7.966;2023-09-18T10:41:20;4.10;;;0.90;;
70132;SDS011;57495;49.922;7.966;2023-09-18T10:43:22;6.85;;;1.00;;
70132;SDS011;57495;49.922;7.966;2023-09-18T10:45:24;4.22;;;0.70;;
70132;SDS011;57495;49.922;7.966;2023-09-18T10:47:26;5.33;;;1.00;;
70132;SDS011;57495;49.922;7.966;2023-09-18T10:49:28;4.82;;;0.85;;
70132;SDS011;57495;49.922;7.966;2023-09-18T10:51:30;3.30;;;1.13;;
70132;SDS011;57495;49.922;7.966;2023-09-18T10:53:33;3.22;;;0.82;;
70132;SDS011;57495;49.922;7.966;2023-09-18T10:55:36;7.55;;;1.15;;
70132;SDS011;57495;49.922;7.966;2023-09-18T10:57:46;4.20;;;1.00;;
70132;SDS011;57495;49.922;7.966;2023-09-18T10:59:50;4.05;;;1.00;;
70132;SDS011;57495;49.922;7.966;2023-09-18T11:01:55;4.32;;;0.77;;
70132;SDS011;57495;49.922;7.966;2023-09-18T11:03:57;5.05;;;0.63;;
70132;SDS011;57495;49.922;7.966;2023-09-18T11:06:02;4.43;;;1.00;;
70132;SDS011;57495;49.922;7.966;2023-09-18T11:08:24;3.50;;;1.10;;
70132;SDS011;57495;49.922;7.966;2023-09-18T11:10:29;3.67;;;0.85;;
70132;SDS011;57495;49.922;7.966;2023-09-18T11:12:43;3.88;;;1.10;;
70132;SDS011;57495;49.922;7.966;2023-09-18T11:14:47;5.75;;;1.33;;
70132;SDS011;57495;49.922;7.966;2023-09-18T11:16:50;6.90;;;1.00;;
70132;SDS011;57495;49.922;7.966;2023-09-18T11:18:52;4.17;;;1.17;;
70132;SDS011;57495;49.922;7.966;2023-09-18T11:21:06;4.72;;;1.15;;
70132;SDS011;57495;49.922;7.966;2023-09-18T11:23:10;5.68;;;1.15;;
70132;SDS011;57495;49.922;7.966;2023-09-18T11:25:36;4.95;;;0.90;;
70132;SDS011;57495;49.922;7.966;2023-09-18T11:27:53;5.78;;;1.30;;
70132;SDS011;57495;49.922;7.966;2023-09-18T11:29:55;3.40;;;1.10;;
70132;SDS011;57495;49.922;7.966;2023-09-18T11:31:59;4.88;;;1.20;;
70132;SDS011;57495;49.922;7.966;2023-09-18T11:34:10;4.85;;;1.20;;
70132;SDS011;57495;49.922;7.966;2023-09-18T11:36:12;5.07;;;1.27;;
70132;SDS011;57495;49.922;7.966;2023-09-18T11:38:15;5.35;;;1.13;;
70132;SDS011;57495;49.922;7.966;2023-09-18T11:40:29;5.13;;;1.47;;
70132;SDS011;57495;49.922;7.966;2023-09-18T11:42:34;3.80;;;1.52;;
70132;SDS011;57495;49.922;7.966;2023-09-18T11:44:37;4.22;;;1.30;;
70132;SDS011;57495;49.922;7.966;2023-09-18T11:46:45;4.60;;;1.30;;
70132;SDS011;57495;49.922;7.966;2023-09-18T11:48:48;3.05;;;0.73;;
70132;SDS011;57495;49.922;7.966;2023-09-18T11:50:50;6.17;;;1.20;;
70132;SDS011;57495;49.922;7.966;2023-09-18T11:52:54;3.80;;;1.17;;
70132;SDS011;57495;49.922;7.966;2023-09-18T11:54:56;6.10;;;0.85;;
70132;SDS011;57495;49.922;7.966;2023-09-18T11:57:02;5.93;;;0.73;;
70132;SDS011;57495;49.922;7.966;2023-09-18T11:59:04;3.97;;;1.50;;
70132;SDS011;57495;49.922;7.966;2023-09-18T12:01:11;4.03;;;1.13;;
70132;SDS011;57495;49.922;7.966;2023-09-18T12:03:18;8.23;;;1.30;;
70132;SDS011;57495;49.922;7.966;2023-09-18T12:05:25;6.50;;;0.90;;
70132;SDS011;57495;49.922;7.966;2023-09-18T12:07:27;4.15;;;1.00;;
70132;SDS011;57495;49.922;7.966;2023-09-18T12:09:29;4.88;;;0.82;;
70132;SDS011;57495;49.922;7.966;2023-09-18T12:11:30;5.13;;;1.10;;
70132;SDS011;57495;49.922;7.966;2023-09-18T12:13:34;4.78;;;1.25;;
70132;SDS011;57495;49.922;7.966;2023-09-18T12:15:36;5.30;;;1.30;;
70132;SDS011;57495;49.922;7.966;2023-09-18T12:17:41;5.00;;;1.25;;